createdAt,value
2022-12-12T00:00:41.993Z,12.83
2022-12-12T00:03:08.727Z,15.25
2022-12-12T00:05:35.434Z,18.42
2022-12-12T00:08:02.094Z,15.18
2022-12-12T00:10:28.656Z,14.13
2022-12-12T00:12:55.338Z,15.63
2022-12-12T00:15:21.919Z,13.05
2022-12-12T00:17:48.378Z,13.07
2022-12-12T00:20:14.989Z,15.52
2022-12-12T00:22:41.525Z,13.95
2022-12-12T00:25:08.716Z,11.57
2022-12-12T00:27:35.255Z,9.52
2022-12-12T00:30:02.158Z,11.25
2022-12-12T00:32:28.695Z,16.98
2022-12-12T00:34:55.200Z,14.10
2022-12-12T00:37:21.700Z,12.05
2022-12-12T00:39:48.272Z,10.80
2022-12-12T00:42:14.961Z,13.23
2022-12-12T00:44:41.453Z,11.07
2022-12-12T00:47:08.087Z,13.77
2022-12-12T00:49:34.691Z,13.95
2022-12-12T00:52:01.338Z,14.02
2022-12-12T00:54:28.135Z,16.38
2022-12-12T00:56:54.637Z,18.63
2022-12-12T00:59:21.270Z,16.08
2022-12-12T01:01:47.825Z,13.45
2022-12-12T01:04:14.953Z,16.60
2022-12-12T01:06:41.489Z,11.73
2022-12-12T01:09:08.037Z,15.80
2022-12-12T01:11:34.789Z,13.90
2022-12-12T01:14:01.656Z,17.83
2022-12-12T01:16:29.401Z,14.35
2022-12-12T01:18:56.129Z,14.18
2022-12-12T01:21:23.363Z,13.38
2022-12-12T01:23:49.997Z,15.80
2022-12-12T01:26:20.311Z,12.75
2022-12-12T01:28:46.865Z,11.70
2022-12-12T01:31:14.066Z,14.48
2022-12-12T01:33:42.177Z,12.25
2022-12-12T01:38:35.134Z,13.32
2022-12-12T01:41:01.720Z,15.30
2022-12-12T01:43:28.716Z,14.75
2022-12-12T01:45:55.810Z,13.05
2022-12-12T01:48:25.799Z,13.85
2022-12-12T01:50:53.320Z,14.35
2022-12-12T01:53:20.918Z,14.38
2022-12-12T01:55:49.380Z,12.23
2022-12-12T01:58:16.982Z,16.88
2022-12-12T02:00:43.917Z,21.08
2022-12-12T02:03:10.745Z,14.15
2022-12-12T02:05:41.725Z,12.38
2022-12-12T02:08:10.408Z,15.90
2022-12-12T02:10:37.489Z,15.85
2022-12-12T02:13:11.706Z,13.63
2022-12-12T02:16:10.076Z,15.85
2022-12-12T02:18:44.630Z,15.00
2022-12-12T02:21:23.046Z,14.35
2022-12-12T02:24:13.608Z,16.77
2022-12-12T02:27:04.163Z,15.65
2022-12-12T02:30:07.673Z,12.50
2022-12-12T02:32:52.430Z,11.45
2022-12-12T02:35:43.387Z,15.82
2022-12-12T02:38:27.775Z,14.05
2022-12-12T02:41:21.165Z,14.23
2022-12-12T02:43:54.787Z,15.50
2022-12-12T02:46:31.755Z,19.30
2022-12-12T02:49:32.939Z,14.17
2022-12-12T02:52:01.108Z,16.35
2022-12-12T02:54:28.175Z,14.90
2022-12-12T02:56:58.159Z,16.20
2022-12-12T02:59:40.023Z,16.48
2022-12-12T03:02:22.668Z,15.40
2022-12-12T03:04:57.748Z,15.40
2022-12-12T03:07:52.797Z,13.95
2022-12-12T03:10:28.216Z,18.48
2022-12-12T03:13:25.843Z,17.33
2022-12-12T03:16:05.601Z,12.02
2022-12-12T03:18:35.073Z,16.17
2022-12-12T03:21:08.168Z,13.95
2022-12-12T03:23:39.891Z,14.15
2022-12-12T03:26:19.431Z,12.65
2022-12-12T03:28:54.532Z,19.58
2022-12-12T03:31:26.233Z,16.83
2022-12-12T03:34:19.495Z,21.67
2022-12-12T03:36:54.346Z,16.08
2022-12-12T03:39:27.069Z,17.75
2022-12-12T03:42:19.335Z,16.88
2022-12-12T03:44:55.468Z,12.90
2022-12-12T03:47:30.005Z,20.83
2022-12-12T03:50:09.557Z,16.25
2022-12-12T03:52:52.949Z,19.05
2022-12-12T03:55:26.727Z,20.58
2022-12-12T03:58:08.520Z,13.35
2022-12-12T04:00:37.782Z,16.90
2022-12-12T04:03:18.192Z,24.90
2022-12-12T04:06:07.675Z,15.60
2022-12-12T04:08:35.084Z,17.45
2022-12-12T04:11:07.902Z,15.50
2022-12-12T04:13:59.187Z,12.48
2022-12-12T04:16:33.171Z,15.07
2022-12-12T04:19:11.896Z,15.35
2022-12-12T04:21:53.514Z,17.88
2022-12-12T04:24:25.706Z,14.63
2022-12-12T04:27:02.241Z,17.73
2022-12-12T04:29:38.813Z,17.02
2022-12-12T04:32:27.135Z,13.75
2022-12-12T04:35:05.470Z,12.25
2022-12-12T04:37:36.071Z,17.73
2022-12-12T04:40:07.369Z,13.82
2022-12-12T04:42:40.933Z,12.90
2022-12-12T04:45:20.372Z,13.18
2022-12-12T04:47:50.088Z,15.75
2022-12-12T04:50:19.276Z,14.27
2022-12-12T04:52:48.796Z,12.32
2022-12-12T04:55:31.252Z,16.77
2022-12-12T04:57:58.036Z,11.93
2022-12-12T05:00:30.082Z,9.82
2022-12-12T05:03:21.216Z,10.52
2022-12-12T05:05:53.793Z,12.55
2022-12-12T05:08:31.012Z,11.55
2022-12-12T05:11:01.370Z,10.55
2022-12-12T05:13:32.950Z,12.10
2022-12-12T05:16:02.070Z,12.27
2022-12-12T05:18:28.565Z,10.35
2022-12-12T05:20:55.048Z,10.40
2022-12-12T05:23:21.702Z,11.25
2022-12-12T05:25:48.216Z,12.70
2022-12-12T05:28:14.866Z,12.75
2022-12-12T05:30:41.399Z,11.43
2022-12-12T05:33:08.145Z,8.63
2022-12-12T05:35:34.694Z,16.27
2022-12-12T05:38:01.816Z,12.73
2022-12-12T05:40:28.493Z,11.90
2022-12-12T05:42:54.961Z,11.68
2022-12-12T05:45:21.549Z,10.82
2022-12-12T05:47:48.042Z,17.05
2022-12-12T05:50:14.791Z,10.68
2022-12-12T05:52:41.295Z,12.38
2022-12-12T05:55:07.973Z,10.23
2022-12-12T05:57:34.582Z,12.13
2022-12-12T06:00:01.141Z,16.40
2022-12-12T06:02:27.708Z,10.77
2022-12-12T06:04:54.213Z,10.90
2022-12-12T06:07:20.682Z,8.23
2022-12-12T06:09:47.271Z,9.73
2022-12-12T06:12:13.805Z,11.40
2022-12-12T06:14:40.304Z,10.25
2022-12-12T06:17:06.821Z,13.00
2022-12-12T06:19:33.531Z,11.82
2022-12-12T06:22:00.917Z,10.07
2022-12-12T06:24:27.429Z,11.88
2022-12-12T06:26:53.991Z,9.68
2022-12-12T06:29:20.642Z,11.57
2022-12-12T06:31:47.182Z,11.05
2022-12-12T06:34:13.659Z,13.80
2022-12-12T06:36:40.208Z,10.63
2022-12-12T06:39:07.158Z,9.48
2022-12-12T06:41:33.751Z,10.70
2022-12-12T06:44:00.644Z,10.60
2022-12-12T06:46:29.079Z,9.15
2022-12-12T06:48:56.663Z,11.80
2022-12-12T06:51:28.949Z,8.82
2022-12-12T06:53:56.084Z,10.35
2022-12-12T06:56:24.494Z,8.85
2022-12-12T06:58:51.578Z,9.00
2022-12-12T07:01:20.319Z,9.07
2022-12-12T07:03:48.315Z,10.95
2022-12-12T07:08:42.033Z,8.45
2022-12-12T07:11:13.442Z,14.65
2022-12-12T07:13:40.139Z,13.00
2022-12-12T07:16:07.528Z,18.67
2022-12-12T07:18:34.341Z,15.82
2022-12-12T07:21:04.866Z,20.08
2022-12-12T07:23:31.715Z,8.88
2022-12-12T07:25:58.849Z,11.07
2022-12-12T07:28:25.405Z,10.65
2022-12-12T07:30:51.964Z,15.82
2022-12-12T07:33:18.535Z,13.63
2022-12-12T07:35:45.204Z,10.52
2022-12-12T07:38:12.218Z,12.93
2022-12-12T07:40:39.305Z,13.80
2022-12-12T07:43:05.783Z,7.57
2022-12-12T07:45:32.587Z,7.82
2022-12-12T07:47:59.156Z,9.25
2022-12-12T07:50:25.703Z,10.38
2022-12-12T07:52:52.182Z,9.23
2022-12-12T07:55:18.671Z,8.13
2022-12-12T07:57:45.346Z,7.40
2022-12-12T08:00:12.668Z,8.27
2022-12-12T08:02:39.658Z,8.75
2022-12-12T08:05:06.673Z,9.60
2022-12-12T08:07:33.667Z,9.07
2022-12-12T08:10:00.399Z,10.90
2022-12-12T08:12:29.719Z,9.07
2022-12-12T08:14:56.330Z,7.78
2022-12-12T08:17:23.150Z,11.15
2022-12-12T08:19:49.734Z,7.97
2022-12-12T08:22:16.214Z,6.78
2022-12-12T08:24:42.784Z,8.90
2022-12-12T08:27:15.160Z,6.97
2022-12-12T08:29:43.357Z,8.95
2022-12-12T08:32:09.997Z,5.63
2022-12-12T08:34:38.958Z,7.45
2022-12-12T08:37:05.554Z,10.52
2022-12-12T08:39:32.020Z,7.32
2022-12-12T08:41:58.496Z,6.85
2022-12-12T08:44:25.124Z,8.90
2022-12-12T08:46:51.764Z,5.75
2022-12-12T08:49:18.483Z,7.47
2022-12-12T08:51:45.044Z,6.15
2022-12-12T08:54:13.131Z,17.92
2022-12-12T08:56:40.623Z,9.88
2022-12-12T08:59:07.249Z,6.82
2022-12-12T09:01:33.862Z,5.93
2022-12-12T09:04:01.773Z,5.22
2022-12-12T09:06:28.482Z,8.93
2022-12-12T09:08:56.598Z,8.23
2022-12-12T09:11:23.547Z,9.30
2022-12-12T09:13:51.387Z,6.35
2022-12-12T09:16:18.840Z,7.93
2022-12-12T09:18:49.075Z,6.57
2022-12-12T09:21:16.479Z,9.57
2022-12-12T09:23:42.975Z,9.10
2022-12-12T09:26:10.815Z,7.93
2022-12-12T09:28:37.877Z,10.27
2022-12-12T09:31:08.852Z,6.95
2022-12-12T09:33:35.807Z,6.13
2022-12-12T09:36:04.814Z,6.68
2022-12-12T09:38:31.583Z,6.65
2022-12-12T09:41:02.109Z,5.70
2022-12-12T09:43:39.072Z,7.25
2022-12-12T09:46:15.999Z,5.55
2022-12-12T09:48:45.894Z,6.27
2022-12-12T09:51:13.630Z,6.20
2022-12-12T09:53:44.037Z,7.10
2022-12-12T09:56:56.572Z,5.90
2022-12-12T09:59:32.295Z,6.35
2022-12-12T10:02:20.391Z,6.25
2022-12-12T10:05:07.763Z,8.85
2022-12-12T10:07:58.175Z,5.85
2022-12-12T10:10:33.749Z,5.95
2022-12-12T10:13:02.696Z,7.13
2022-12-12T10:15:40.175Z,7.88
2022-12-12T10:18:12.679Z,6.97
2022-12-12T10:20:48.318Z,8.27
2022-12-12T10:23:37.203Z,6.20
2022-12-12T10:26:07.216Z,6.85
2022-12-12T10:28:35.560Z,8.05
2022-12-12T10:31:39.625Z,9.00
2022-12-12T10:34:31.621Z,6.10
2022-12-12T10:37:25.676Z,8.32
2022-12-12T10:40:01.147Z,6.47
2022-12-12T10:42:39.675Z,8.55
2022-12-12T10:45:24.047Z,6.63
2022-12-12T10:47:51.034Z,6.35
2022-12-12T10:50:31.458Z,6.25
2022-12-12T10:52:57.937Z,6.88
2022-12-12T10:55:37.201Z,6.65
2022-12-12T10:58:04.998Z,8.18
2022-12-12T11:00:38.531Z,9.52
2022-12-12T11:03:23.633Z,7.90
2022-12-12T11:05:50.837Z,10.43
2022-12-12T11:08:32.189Z,8.10
2022-12-12T11:11:00.198Z,5.93
2022-12-12T11:15:57.907Z,7.83
2022-12-12T11:18:25.545Z,8.20
2022-12-12T11:21:08.585Z,5.38
2022-12-12T11:23:39.847Z,6.18
2022-12-12T11:26:13.810Z,5.25
2022-12-12T11:28:42.158Z,5.47
2022-12-12T11:31:11.785Z,6.00
2022-12-12T11:33:45.990Z,5.97
2022-12-12T11:36:19.105Z,8.23
2022-12-12T11:38:49.246Z,5.72
2022-12-12T11:41:15.945Z,6.32
2022-12-12T11:43:45.427Z,4.43
2022-12-12T11:46:15.002Z,4.35
2022-12-12T11:48:55.352Z,5.60
2022-12-12T11:51:41.571Z,6.70
2022-12-12T11:54:14.359Z,5.00
2022-12-12T11:56:50.073Z,8.07
2022-12-12T11:59:40.638Z,4.93
2022-12-12T12:02:37.583Z,8.13
2022-12-12T12:05:22.676Z,7.57
2022-12-12T12:08:09.850Z,8.80
2022-12-12T12:11:07.239Z,5.60
2022-12-12T12:13:39.982Z,6.72
2022-12-12T12:16:37.805Z,4.63
2022-12-12T12:19:33.369Z,7.28
2022-12-12T12:22:18.666Z,4.70
2022-12-12T12:24:53.148Z,6.47
2022-12-12T12:27:24.911Z,5.65
2022-12-12T12:29:57.319Z,5.28
2022-12-12T12:32:49.941Z,5.25
2022-12-12T12:35:27.780Z,6.88
2022-12-12T12:40:52.233Z,9.45
2022-12-12T12:43:24.842Z,7.65
2022-12-12T12:46:11.686Z,6.13
2022-12-12T12:48:43.553Z,4.57
2022-12-12T12:51:26.899Z,6.88
2022-12-12T12:54:04.843Z,6.63
2022-12-12T12:59:09.318Z,4.50
2022-12-12T13:01:43.327Z,6.57
2022-12-12T13:04:20.211Z,6.63
2022-12-12T13:06:52.582Z,6.80
2022-12-12T13:09:29.786Z,6.05
2022-12-12T13:12:29.253Z,6.70
2022-12-12T13:15:02.856Z,5.95
2022-12-12T13:18:10.486Z,7.40
2022-12-12T13:20:49.987Z,6.00
2022-12-12T13:23:30.868Z,7.25
2022-12-12T13:26:12.944Z,7.28
2022-12-12T13:28:46.102Z,5.60
2022-12-12T13:31:21.561Z,8.95
2022-12-12T13:33:53.527Z,4.20
2022-12-12T13:36:30.027Z,5.95
2022-12-12T13:39:00.859Z,5.45
2022-12-12T13:41:27.440Z,6.55
2022-12-12T13:44:00.019Z,5.35
2022-12-12T13:46:26.609Z,5.70
2022-12-12T13:49:14.256Z,4.40
2022-12-12T13:51:42.955Z,6.50
2022-12-12T13:54:13.167Z,11.98
2022-12-12T13:56:44.829Z,6.57
2022-12-12T13:59:23.366Z,6.97
2022-12-12T14:01:58.882Z,7.45
2022-12-12T14:04:42.881Z,5.30
2022-12-12T14:07:12.513Z,5.90
2022-12-12T14:09:48.747Z,6.82
2022-12-12T14:12:21.386Z,7.40
2022-12-12T14:15:05.204Z,11.57
2022-12-12T14:17:41.840Z,15.07
2022-12-12T14:20:25.174Z,11.95
2022-12-12T14:22:51.610Z,16.15
2022-12-12T14:25:33.317Z,9.95
2022-12-12T14:28:02.685Z,12.70
2022-12-12T14:30:44.991Z,40.15
2022-12-12T14:33:17.236Z,31.45
2022-12-12T14:35:43.664Z,38.05
2022-12-12T14:38:41.390Z,15.63
2022-12-12T14:41:19.316Z,9.73
2022-12-12T14:46:42.434Z,12.95
2022-12-12T14:49:17.483Z,8.32
2022-12-12T14:51:46.799Z,11.57
2022-12-12T14:54:19.068Z,14.82
2022-12-12T14:56:53.033Z,11.93
2022-12-12T14:59:29.714Z,11.52
2022-12-12T15:02:23.499Z,25.83
2022-12-12T15:05:04.206Z,39.90
2022-12-12T15:07:34.445Z,18.25
2022-12-12T15:10:01.497Z,19.95
2022-12-12T15:12:42.734Z,20.73
2022-12-12T15:15:26.571Z,23.02
2022-12-12T15:17:55.554Z,15.02
2022-12-12T15:20:25.848Z,11.98
2022-12-12T15:22:58.059Z,11.93
2022-12-12T15:25:31.331Z,12.93
2022-12-12T15:27:58.909Z,12.93
2022-12-12T15:30:38.853Z,8.80
2022-12-12T15:33:08.324Z,10.20
2022-12-12T15:35:34.962Z,9.45
2022-12-12T15:38:04.295Z,10.93
2022-12-12T15:40:32.290Z,9.57
2022-12-12T15:45:34.901Z,5.82
2022-12-12T15:48:02.929Z,7.18
2022-12-12T15:50:42.161Z,7.85
2022-12-12T15:53:29.756Z,6.45
2022-12-12T15:56:00.575Z,10.23
2022-12-12T15:59:07.568Z,9.90
2022-12-12T16:01:34.197Z,8.00
2022-12-12T16:04:01.907Z,6.35
2022-12-12T16:06:34.009Z,10.15
2022-12-12T16:09:02.327Z,17.10
2022-12-12T16:11:46.056Z,18.33
2022-12-12T16:14:39.089Z,14.25
2022-12-12T16:17:21.173Z,17.27
2022-12-12T16:20:06.888Z,10.23
2022-12-12T16:22:37.116Z,10.25
2022-12-12T16:25:15.666Z,13.13
2022-12-12T16:27:42.326Z,8.18
2022-12-12T16:30:12.693Z,11.80
2022-12-12T16:32:40.052Z,10.07
2022-12-12T16:35:06.814Z,15.23
2022-12-12T16:37:33.669Z,9.70
2022-12-12T16:40:00.215Z,9.15
2022-12-12T16:42:28.389Z,7.53
2022-12-12T16:44:54.854Z,10.35
2022-12-12T16:47:23.979Z,10.27
2022-12-12T16:49:51.134Z,8.30
2022-12-12T16:52:20.634Z,9.10
2022-12-12T16:54:53.060Z,11.52
2022-12-12T16:57:21.650Z,12.50
2022-12-12T17:02:23.146Z,9.75
2022-12-12T17:04:50.919Z,7.80
2022-12-12T17:07:18.162Z,9.93
2022-12-12T17:09:44.793Z,10.70
2022-12-12T17:12:11.316Z,9.38
2022-12-12T17:14:37.869Z,14.13
2022-12-12T17:17:05.031Z,21.50
2022-12-12T17:19:31.964Z,21.17
2022-12-12T17:21:58.529Z,43.20
2022-12-12T17:24:25.252Z,43.83
2022-12-12T17:26:51.955Z,29.95
2022-12-12T17:29:18.523Z,28.60
2022-12-12T17:31:45.018Z,21.98
2022-12-12T17:34:11.575Z,18.08
2022-12-12T17:36:38.434Z,22.13
2022-12-12T17:39:05.367Z,20.60
2022-12-12T17:41:31.828Z,20.85
2022-12-12T17:43:58.337Z,17.73
2022-12-12T17:46:25.837Z,20.08
2022-12-12T17:48:52.481Z,16.13
2022-12-12T17:51:21.656Z,20.15
2022-12-12T17:53:48.265Z,22.48
2022-12-12T17:56:16.902Z,19.83
2022-12-12T17:58:45.248Z,19.17
2022-12-12T18:01:18.662Z,23.92
2022-12-12T18:03:45.598Z,19.27
2022-12-12T18:06:13.719Z,19.40
2022-12-12T18:08:41.124Z,22.13
2022-12-12T18:11:10.014Z,19.73
2022-12-12T18:13:37.334Z,18.48
2022-12-12T18:16:04.624Z,13.80
2022-12-12T18:18:31.802Z,17.40
2022-12-12T18:21:06.548Z,18.25
2022-12-12T18:23:34.094Z,17.58
2022-12-12T18:26:06.422Z,19.98
2022-12-12T18:28:33.738Z,25.35
2022-12-12T18:31:00.468Z,21.33
2022-12-12T18:33:27.053Z,25.02
2022-12-12T18:36:01.058Z,27.25
2022-12-12T18:38:27.562Z,23.92
2022-12-12T18:40:54.209Z,17.67
2022-12-12T18:43:20.763Z,21.15
2022-12-12T18:45:47.324Z,22.67
2022-12-12T18:48:13.923Z,24.08
2022-12-12T18:50:40.466Z,24.73
2022-12-12T18:53:06.990Z,21.65
2022-12-12T18:55:33.487Z,20.17
2022-12-12T18:57:59.983Z,18.83
2022-12-12T19:00:27.186Z,26.75
2022-12-12T19:02:56.177Z,19.83
2022-12-12T19:05:22.796Z,23.35
2022-12-12T19:07:49.351Z,24.48
2022-12-12T19:10:16.574Z,28.88
2022-12-12T19:12:43.224Z,22.20
2022-12-12T19:15:18.158Z,19.98
2022-12-12T19:17:44.838Z,27.15
2022-12-12T19:20:11.652Z,26.92
2022-12-12T19:22:46.645Z,24.00
2022-12-12T19:25:15.180Z,23.10
2022-12-12T19:27:41.943Z,25.33
2022-12-12T19:30:09.688Z,18.57
2022-12-12T19:32:36.352Z,24.15
2022-12-12T19:35:02.933Z,23.42
2022-12-12T19:37:29.642Z,21.40
2022-12-12T19:39:56.116Z,28.83
2022-12-12T19:42:23.002Z,26.30
2022-12-12T19:44:49.523Z,23.93
2022-12-12T19:47:16.029Z,22.63
2022-12-12T19:49:42.536Z,27.38
2022-12-12T19:52:13.861Z,32.25
2022-12-12T19:54:41.045Z,23.40
2022-12-12T19:57:07.586Z,24.30
2022-12-12T19:59:34.047Z,27.20
2022-12-12T20:02:00.519Z,37.80
2022-12-12T20:04:26.974Z,33.70
2022-12-12T20:06:53.437Z,42.67
2022-12-12T20:09:22.885Z,50.22
2022-12-12T20:11:50.448Z,33.22
2022-12-12T20:14:22.290Z,49.25
2022-12-12T20:16:49.275Z,52.97
2022-12-12T20:19:16.842Z,74.65
2022-12-12T20:22:02.037Z,74.00
2022-12-12T20:24:29.823Z,68.70
2022-12-12T20:26:56.697Z,45.13
2022-12-12T20:29:23.183Z,34.75
2022-12-12T20:31:49.809Z,26.10
2022-12-12T20:34:18.283Z,23.98
2022-12-12T20:36:45.253Z,24.90
2022-12-12T20:39:14.901Z,28.07
2022-12-12T20:41:42.550Z,36.83
2022-12-12T20:44:10.635Z,27.95
2022-12-12T20:46:39.648Z,30.25
2022-12-12T20:49:09.273Z,22.55
2022-12-12T20:54:23.947Z,30.77
2022-12-12T20:56:50.949Z,24.15
2022-12-12T20:59:17.448Z,22.58
2022-12-12T21:01:44.005Z,23.05
2022-12-12T21:04:10.628Z,29.40
2022-12-12T21:06:40.255Z,28.27
2022-12-12T21:09:10.135Z,26.20
2022-12-12T21:11:38.138Z,27.67
2022-12-12T21:16:34.183Z,28.20
2022-12-12T21:19:05.691Z,28.45
2022-12-12T21:21:32.544Z,24.15
2022-12-12T21:23:59.770Z,22.65
2022-12-12T21:26:29.548Z,22.40
2022-12-12T21:28:57.305Z,22.33
2022-12-12T21:33:52.419Z,27.05
2022-12-12T21:36:21.312Z,24.07
2022-12-12T21:38:48.609Z,25.58
2022-12-12T21:41:18.870Z,22.77
2022-12-12T21:43:45.834Z,23.42
2022-12-12T21:46:24.285Z,19.23
2022-12-12T21:48:51.950Z,23.88
2022-12-12T21:51:18.450Z,25.52
2022-12-12T21:53:45.177Z,21.45
2022-12-12T21:56:16.697Z,25.40
2022-12-12T21:58:45.685Z,25.88
2022-12-12T22:01:14.812Z,17.02
2022-12-12T22:03:42.061Z,28.35
2022-12-12T22:06:14.530Z,19.67
2022-12-12T22:08:41.905Z,20.10
2022-12-12T22:11:09.549Z,22.63
2022-12-12T22:16:18.539Z,25.83
2022-12-12T22:18:50.042Z,22.73
2022-12-12T22:21:20.454Z,27.33
2022-12-12T22:23:49.104Z,21.70
2022-12-12T22:26:18.780Z,22.27
2022-12-12T22:28:45.252Z,22.98
2022-12-12T22:31:11.807Z,18.45
2022-12-12T22:33:38.475Z,20.00
2022-12-12T22:36:07.309Z,22.33
2022-12-12T22:38:37.979Z,24.58
2022-12-12T22:41:06.869Z,27.27
2022-12-12T22:43:35.351Z,21.08
2022-12-12T22:46:07.202Z,22.98
2022-12-12T22:48:34.769Z,21.27
2022-12-12T22:51:22.601Z,19.20
2022-12-12T22:53:49.211Z,26.65
2022-12-12T22:56:16.468Z,24.17
2022-12-12T22:58:43.036Z,19.02
2022-12-12T23:01:12.902Z,28.45
2022-12-12T23:03:39.599Z,22.42
2022-12-12T23:06:14.917Z,22.33
2022-12-12T23:08:43.053Z,17.77
2022-12-12T23:11:14.963Z,22.75
2022-12-12T23:13:43.033Z,26.02
2022-12-12T23:16:12.213Z,23.33
2022-12-12T23:18:40.502Z,22.92
2022-12-12T23:21:16.329Z,17.25
2022-12-12T23:23:43.797Z,21.33
2022-12-12T23:26:13.564Z,21.97
2022-12-12T23:28:40.346Z,21.50
2022-12-12T23:31:09.153Z,24.70
2022-12-12T23:33:36.352Z,22.98
2022-12-12T23:36:03.540Z,21.65
2022-12-12T23:38:30.102Z,23.25
2022-12-12T23:40:56.612Z,17.75
2022-12-12T23:43:24.695Z,19.00
2022-12-12T23:45:51.271Z,14.95
2022-12-12T23:48:17.816Z,17.88
2022-12-12T23:50:44.286Z,12.95
2022-12-12T23:53:11.845Z,20.00
2022-12-12T23:55:38.381Z,17.08
2022-12-12T23:58:05.028Z,25.95
